Raymondville, Texas
Current Conditions -  °F | °C
As of 12:37 AM on Sunday 21 Dec 2014 (Local Time) from KHRL Reporting Station
Overcast Overcast  
Wind Chill: 14°   Ceiling: 4400
Heat Index: 14°   Visibility: 10mi
Dew Point: 12°   Wind: 9mph
Humidity: 88%   Direction: 360°N
Pressure: 30.11"   Gusts: NA
Location:  26.48°N, 97.78°W
Report Text: KHRL 210637Z 36008KT 10SM FEW013 OVC044 14/12 A3011 RMK AO2
Loading
Personal Weather Stations






























Interactive Weather Map New forecast layout! Learn more

10-Day Weather Forecast

Advertisements
Track Severe Weather on mobile